sensor_id;sensor_type;location;lat;lon;timestamp;temperature;humidity
47540;DHT22;33280;52.152;21.052;2023-05-10T00:00:21;8.00;99.90
47540;DHT22;33280;52.152;21.052;2023-05-10T00:02:50;8.00;99.90
47540;DHT22;33280;52.152;21.052;2023-05-10T00:05:18;7.90;99.90
47540;DHT22;33280;52.152;21.052;2023-05-10T00:07:45;7.90;99.90
47540;DHT22;33280;52.152;21.052;2023-05-10T00:10:12;7.90;99.90
47540;DHT22;33280;52.152;21.052;2023-05-10T00:12:39;7.80;99.90
47540;DHT22;33280;52.152;21.052;2023-05-10T00:15:08;7.80;99.90
47540;DHT22;33280;52.152;21.052;2023-05-10T00:17:35;7.80;99.90
47540;DHT22;33280;52.152;21.052;2023-05-10T00:20:03;7.60;99.90
47540;DHT22;33280;52.152;21.052;2023-05-10T00:22:31;7.60;99.90
47540;DHT22;33280;52.152;21.052;2023-05-10T00:24:59;7.60;99.90
47540;DHT22;33280;52.152;21.052;2023-05-10T00:27:25;7.50;99.90
47540;DHT22;33280;52.152;21.052;2023-05-10T00:29:52;7.50;99.90
47540;DHT22;33280;52.152;21.052;2023-05-10T00:32:19;7.50;99.90
47540;DHT22;33280;52.152;21.052;2023-05-10T00:34:47;7.50;99.90
47540;DHT22;33280;52.152;21.052;2023-05-10T00:37:14;7.50;99.90
47540;DHT22;33280;52.152;21.052;2023-05-10T00:39:41;7.50;99.90
47540;DHT22;33280;52.152;21.052;2023-05-10T00:42:08;7.40;99.90
47540;DHT22;33280;52.152;21.052;2023-05-10T00:44:35;7.50;99.90
47540;DHT22;33280;52.152;21.052;2023-05-10T00:47:02;7.40;99.90
47540;DHT22;33280;52.152;21.052;2023-05-10T00:49:29;7.30;99.90
47540;DHT22;33280;52.152;21.052;2023-05-10T00:51:56;7.30;99.90
47540;DHT22;33280;52.152;21.052;2023-05-10T00:54:23;7.40;99.90
47540;DHT22;33280;52.152;21.052;2023-05-10T00:56:51;7.30;99.90
47540;DHT22;33280;52.152;21.052;2023-05-10T00:59:19;7.30;99.90
47540;DHT22;33280;52.152;21.052;2023-05-10T01:01:47;7.30;99.90
47540;DHT22;33280;52.152;21.052;2023-05-10T01:04:14;7.20;99.90
47540;DHT22;33280;52.152;21.052;2023-05-10T01:06:42;7.30;99.90
47540;DHT22;33280;52.152;21.052;2023-05-10T01:09:09;7.30;99.90
47540;DHT22;33280;52.152;21.052;2023-05-10T01:11:39;7.30;99.90
47540;DHT22;33280;52.152;21.052;2023-05-10T01:14:07;7.20;99.90
47540;DHT22;33280;52.152;21.052;2023-05-10T01:16:37;7.20;99.90
47540;DHT22;33280;52.152;21.052;2023-05-10T01:19:25;7.20;99.90
47540;DHT22;33280;52.152;21.052;2023-05-10T01:30:30;7.00;99.90
47540;DHT22;33280;52.152;21.052;2023-05-10T01:33:22;7.00;99.90
47540;DHT22;33280;52.152;21.052;2023-05-10T01:35:59;7.00;99.90
47540;DHT22;33280;52.152;21.052;2023-05-10T01:41:49;7.00;99.90
47540;DHT22;33280;52.152;21.052;2023-05-10T01:47:20;7.00;99.90
47540;DHT22;33280;52.152;21.052;2023-05-10T01:49:54;6.90;99.90
47540;DHT22;33280;52.152;21.052;2023-05-10T01:52:26;6.90;99.90
47540;DHT22;33280;52.152;21.052;2023-05-10T01:55:04;6.90;99.90
47540;DHT22;33280;52.152;21.052;2023-05-10T01:57:39;6.90;99.90
47540;DHT22;33280;52.152;21.052;2023-05-10T02:00:08;6.90;99.90
47540;DHT22;33280;52.152;21.052;2023-05-10T02:02:39;6.80;99.90
47540;DHT22;33280;52.152;21.052;2023-05-10T02:05:06;6.90;99.90
47540;DHT22;33280;52.152;21.052;2023-05-10T02:07:37;6.90;99.90
47540;DHT22;33280;52.152;21.052;2023-05-10T02:10:05;6.90;99.90
47540;DHT22;33280;52.152;21.052;2023-05-10T02:12:41;6.90;99.90
47540;DHT22;33280;52.152;21.052;2023-05-10T02:15:10;6.90;99.90
47540;DHT22;33280;52.152;21.052;2023-05-10T02:17:39;6.80;99.90
47540;DHT22;33280;52.152;21.052;2023-05-10T02:20:07;6.80;99.90
47540;DHT22;33280;52.152;21.052;2023-05-10T02:22:35;6.70;99.90
47540;DHT22;33280;52.152;21.052;2023-05-10T02:25:03;6.80;99.90
47540;DHT22;33280;52.152;21.052;2023-05-10T02:27:30;6.70;99.90
47540;DHT22;33280;52.152;21.052;2023-05-10T02:29:58;6.70;99.90
47540;DHT22;33280;52.152;21.052;2023-05-10T02:32:26;6.70;99.90
47540;DHT22;33280;52.152;21.052;2023-05-10T02:34:54;6.70;99.90
47540;DHT22;33280;52.152;21.052;2023-05-10T02:37:22;6.70;99.90
47540;DHT22;33280;52.152;21.052;2023-05-10T02:39:52;6.70;99.90
47540;DHT22;33280;52.152;21.052;2023-05-10T02:42:25;6.70;99.90
47540;DHT22;33280;52.152;21.052;2023-05-10T02:44:56;6.60;99.90
47540;DHT22;33280;52.152;21.052;2023-05-10T02:47:23;6.70;99.90
47540;DHT22;33280;52.152;21.052;2023-05-10T02:49:50;6.60;99.90
47540;DHT22;33280;52.152;21.052;2023-05-10T02:52:22;6.60;99.90
47540;DHT22;33280;52.152;21.052;2023-05-10T02:54:54;6.60;99.90
47540;DHT22;33280;52.152;21.052;2023-05-10T02:57:26;6.50;99.90
47540;DHT22;33280;52.152;21.052;2023-05-10T02:59:54;6.50;99.90
47540;DHT22;33280;52.152;21.052;2023-05-10T03:02:21;6.50;99.90
47540;DHT22;33280;52.152;21.052;2023-05-10T03:04:48;6.50;99.90
47540;DHT22;33280;52.152;21.052;2023-05-10T03:07:15;6.50;99.90
47540;DHT22;33280;52.152;21.052;2023-05-10T03:09:45;6.60;99.90
47540;DHT22;33280;52.152;21.052;2023-05-10T03:15:18;6.50;99.90
47540;DHT22;33280;52.152;21.052;2023-05-10T03:17:57;6.50;99.90
47540;DHT22;33280;52.152;21.052;2023-05-10T03:20:42;6.50;99.90
47540;DHT22;33280;52.152;21.052;2023-05-10T03:23:27;6.50;99.90
47540;DHT22;33280;52.152;21.052;2023-05-10T03:25:56;6.50;99.90
47540;DHT22;33280;52.152;21.052;2023-05-10T03:28:25;6.60;99.90
47540;DHT22;33280;52.152;21.052;2023-05-10T03:30:54;6.50;99.90
47540;DHT22;33280;52.152;21.052;2023-05-10T03:33:22;6.50;99.90
47540;DHT22;33280;52.152;21.052;2023-05-10T03:35:49;6.50;99.90
47540;DHT22;33280;52.152;21.052;2023-05-10T03:38:15;6.60;99.90
47540;DHT22;33280;52.152;21.052;2023-05-10T03:40:42;6.60;99.90
47540;DHT22;33280;52.152;21.052;2023-05-10T03:43:09;6.70;99.90
47540;DHT22;33280;52.152;21.052;2023-05-10T03:45:36;6.60;99.90
47540;DHT22;33280;52.152;21.052;2023-05-10T03:48:04;6.70;99.90
47540;DHT22;33280;52.152;21.052;2023-05-10T03:50:31;6.70;99.90
47540;DHT22;33280;52.152;21.052;2023-05-10T03:52:58;6.70;99.90
47540;DHT22;33280;52.152;21.052;2023-05-10T03:55:25;6.70;99.90
47540;DHT22;33280;52.152;21.052;2023-05-10T03:57:51;6.80;99.90
47540;DHT22;33280;52.152;21.052;2023-05-10T04:00:20;6.80;99.90
47540;DHT22;33280;52.152;21.052;2023-05-10T04:02:47;6.80;99.90
47540;DHT22;33280;52.152;21.052;2023-05-10T04:05:14;6.80;99.90
47540;DHT22;33280;52.152;21.052;2023-05-10T04:07:41;6.90;99.90
47540;DHT22;33280;52.152;21.052;2023-05-10T04:10:08;7.00;99.90
47540;DHT22;33280;52.152;21.052;2023-05-10T04:12:35;7.00;99.90
47540;DHT22;33280;52.152;21.052;2023-05-10T04:15:02;7.10;99.90
47540;DHT22;33280;52.152;21.052;2023-05-10T04:17:29;7.10;99.90
47540;DHT22;33280;52.152;21.052;2023-05-10T04:19:56;7.10;99.90
47540;DHT22;33280;52.152;21.052;2023-05-10T04:22:23;7.20;99.90
47540;DHT22;33280;52.152;21.052;2023-05-10T04:24:50;7.20;99.90
47540;DHT22;33280;52.152;21.052;2023-05-10T04:27:16;7.20;99.90
47540;DHT22;33280;52.152;21.052;2023-05-10T04:29:43;7.30;99.90
47540;DHT22;33280;52.152;21.052;2023-05-10T04:32:10;7.30;99.90
47540;DHT22;33280;52.152;21.052;2023-05-10T04:34:39;7.40;99.90
47540;DHT22;33280;52.152;21.052;2023-05-10T04:37:06;7.50;99.90
47540;DHT22;33280;52.152;21.052;2023-05-10T04:39:34;7.50;99.90
47540;DHT22;33280;52.152;21.052;2023-05-10T04:42:03;7.50;99.90
47540;DHT22;33280;52.152;21.052;2023-05-10T04:44:32;7.60;99.90
47540;DHT22;33280;52.152;21.052;2023-05-10T04:46:59;7.60;99.90
47540;DHT22;33280;52.152;21.052;2023-05-10T04:49:26;7.70;99.90
47540;DHT22;33280;52.152;21.052;2023-05-10T04:51:53;7.70;99.90
47540;DHT22;33280;52.152;21.052;2023-05-10T04:54:20;7.90;99.90
47540;DHT22;33280;52.152;21.052;2023-05-10T04:56:47;7.90;99.90
47540;DHT22;33280;52.152;21.052;2023-05-10T04:59:14;8.00;99.90
47540;DHT22;33280;52.152;21.052;2023-05-10T05:01:41;8.10;99.90
47540;DHT22;33280;52.152;21.052;2023-05-10T05:04:08;8.30;99.90
47540;DHT22;33280;52.152;21.052;2023-05-10T05:06:34;8.50;99.90
47540;DHT22;33280;52.152;21.052;2023-05-10T05:09:01;8.50;99.90
47540;DHT22;33280;52.152;21.052;2023-05-10T05:11:29;8.60;99.90
47540;DHT22;33280;52.152;21.052;2023-05-10T05:13:56;8.60;99.90
47540;DHT22;33280;52.152;21.052;2023-05-10T05:16:31;8.70;99.90
47540;DHT22;33280;52.152;21.052;2023-05-10T05:18:59;8.90;99.90
47540;DHT22;33280;52.152;21.052;2023-05-10T05:21:27;8.80;99.90
47540;DHT22;33280;52.152;21.052;2023-05-10T05:23:54;8.80;99.90
47540;DHT22;33280;52.152;21.052;2023-05-10T05:26:21;8.90;99.90
47540;DHT22;33280;52.152;21.052;2023-05-10T05:28:48;9.00;99.90
47540;DHT22;33280;52.152;21.052;2023-05-10T05:31:18;9.00;99.90
47540;DHT22;33280;52.152;21.052;2023-05-10T05:33:45;9.20;99.90
47540;DHT22;33280;52.152;21.052;2023-05-10T05:36:12;9.30;99.90
47540;DHT22;33280;52.152;21.052;2023-05-10T05:38:39;9.40;99.90
47540;DHT22;33280;52.152;21.052;2023-05-10T05:41:06;9.50;99.90
47540;DHT22;33280;52.152;21.052;2023-05-10T05:43:33;9.60;99.90
47540;DHT22;33280;52.152;21.052;2023-05-10T05:46:03;9.70;99.90
47540;DHT22;33280;52.152;21.052;2023-05-10T05:48:30;9.90;99.90
47540;DHT22;33280;52.152;21.052;2023-05-10T05:50:58;9.90;99.90
47540;DHT22;33280;52.152;21.052;2023-05-10T05:53:25;10.00;99.90
47540;DHT22;33280;52.152;21.052;2023-05-10T05:55:56;10.20;99.90
47540;DHT22;33280;52.152;21.052;2023-05-10T05:58:25;10.20;99.90
47540;DHT22;33280;52.152;21.052;2023-05-10T06:00:52;10.30;99.90
47540;DHT22;33280;52.152;21.052;2023-05-10T06:03:19;10.40;99.90
47540;DHT22;33280;52.152;21.052;2023-05-10T06:05:47;10.50;99.90
47540;DHT22;33280;52.152;21.052;2023-05-10T06:08:14;10.60;99.90
47540;DHT22;33280;52.152;21.052;2023-05-10T06:10:41;10.70;99.90
47540;DHT22;33280;52.152;21.052;2023-05-10T06:13:08;10.80;99.90
47540;DHT22;33280;52.152;21.052;2023-05-10T06:15:35;10.90;99.90
47540;DHT22;33280;52.152;21.052;2023-05-10T06:18:04;11.00;99.90
47540;DHT22;33280;52.152;21.052;2023-05-10T06:20:31;11.10;99.90
47540;DHT22;33280;52.152;21.052;2023-05-10T06:23:01;11.30;99.90
47540;DHT22;33280;52.152;21.052;2023-05-10T06:25:28;11.40;99.90
47540;DHT22;33280;52.152;21.052;2023-05-10T06:27:55;11.50;99.90
47540;DHT22;33280;52.152;21.052;2023-05-10T06:30:25;11.60;99.90
47540;DHT22;33280;52.152;21.052;2023-05-10T06:33:01;11.80;99.90
47540;DHT22;33280;52.152;21.052;2023-05-10T06:35:28;11.80;99.90
47540;DHT22;33280;52.152;21.052;2023-05-10T06:37:55;11.90;99.90
47540;DHT22;33280;52.152;21.052;2023-05-10T06:40:22;12.00;99.90
47540;DHT22;33280;52.152;21.052;2023-05-10T06:42:49;12.20;99.90
47540;DHT22;33280;52.152;21.052;2023-05-10T06:45:16;12.30;99.90
47540;DHT22;33280;52.152;21.052;2023-05-10T06:47:44;12.30;99.90
47540;DHT22;33280;52.152;21.052;2023-05-10T06:50:11;12.40;99.90
47540;DHT22;33280;52.152;21.052;2023-05-10T06:52:38;12.50;99.90
47540;DHT22;33280;52.152;21.052;2023-05-10T06:55:06;12.70;99.90
47540;DHT22;33280;52.152;21.052;2023-05-10T06:57:33;12.80;99.90
47540;DHT22;33280;52.152;21.052;2023-05-10T07:00:00;12.90;99.90
47540;DHT22;33280;52.152;21.052;2023-05-10T07:02:27;13.00;99.90
47540;DHT22;33280;52.152;21.052;2023-05-10T07:04:54;13.10;99.90
47540;DHT22;33280;52.152;21.052;2023-05-10T07:07:21;13.30;99.90
47540;DHT22;33280;52.152;21.052;2023-05-10T07:09:48;13.40;99.90
47540;DHT22;33280;52.152;21.052;2023-05-10T07:12:17;13.40;99.90
47540;DHT22;33280;52.152;21.052;2023-05-10T07:14:44;13.50;97.80
47540;DHT22;33280;52.152;21.052;2023-05-10T07:17:11;13.50;96.70
47540;DHT22;33280;52.152;21.052;2023-05-10T07:19:38;13.50;97.40
47540;DHT22;33280;52.152;21.052;2023-05-10T07:22:05;13.60;99.00
47540;DHT22;33280;52.152;21.052;2023-05-10T07:24:33;13.80;98.30
47540;DHT22;33280;52.152;21.052;2023-05-10T07:27:00;13.90;92.90
47540;DHT22;33280;52.152;21.052;2023-05-10T07:29:27;14.00;91.40
47540;DHT22;33280;52.152;21.052;2023-05-10T07:31:54;13.90;90.40
47540;DHT22;33280;52.152;21.052;2023-05-10T07:34:24;13.90;91.30
47540;DHT22;33280;52.152;21.052;2023-05-10T07:36:52;14.10;91.40
47540;DHT22;33280;52.152;21.052;2023-05-10T07:39:19;14.20;90.20
47540;DHT22;33280;52.152;21.052;2023-05-10T07:41:54;14.40;89.00
47540;DHT22;33280;52.152;21.052;2023-05-10T07:44:21;14.50;84.70
47540;DHT22;33280;52.152;21.052;2023-05-10T07:46:48;14.50;85.60
47540;DHT22;33280;52.152;21.052;2023-05-10T07:49:16;14.70;83.20
47540;DHT22;33280;52.152;21.052;2023-05-10T07:51:43;14.80;84.50
47540;DHT22;33280;52.152;21.052;2023-05-10T07:54:10;14.80;82.40
47540;DHT22;33280;52.152;21.052;2023-05-10T07:56:37;14.80;82.20
47540;DHT22;33280;52.152;21.052;2023-05-10T07:59:05;15.00;81.10
47540;DHT22;33280;52.152;21.052;2023-05-10T08:01:34;15.10;78.10
47540;DHT22;33280;52.152;21.052;2023-05-10T08:04:01;15.20;76.30
47540;DHT22;33280;52.152;21.052;2023-05-10T08:06:29;15.30;75.50
47540;DHT22;33280;52.152;21.052;2023-05-10T08:08:57;15.40;74.80
47540;DHT22;33280;52.152;21.052;2023-05-10T08:11:24;15.80;73.10
47540;DHT22;33280;52.152;21.052;2023-05-10T08:13:51;16.70;66.60
47540;DHT22;33280;52.152;21.052;2023-05-10T08:16:19;17.50;63.70
47540;DHT22;33280;52.152;21.052;2023-05-10T08:18:47;18.00;58.20
47540;DHT22;33280;52.152;21.052;2023-05-10T08:21:14;18.20;58.90
47540;DHT22;33280;52.152;21.052;2023-05-10T08:23:42;18.60;57.00
47540;DHT22;33280;52.152;21.052;2023-05-10T08:26:11;18.90;55.50
47540;DHT22;33280;52.152;21.052;2023-05-10T08:28:38;19.20;55.60
47540;DHT22;33280;52.152;21.052;2023-05-10T08:31:05;19.20;54.10
47540;DHT22;33280;52.152;21.052;2023-05-10T08:33:32;19.60;55.10
47540;DHT22;33280;52.152;21.052;2023-05-10T08:35:59;20.10;52.80
47540;DHT22;33280;52.152;21.052;2023-05-10T08:38:26;20.10;52.40
47540;DHT22;33280;52.152;21.052;2023-05-10T08:40:54;20.00;51.90
47540;DHT22;33280;52.152;21.052;2023-05-10T08:43:27;20.00;51.50
47540;DHT22;33280;52.152;21.052;2023-05-10T08:45:56;20.00;51.90
47540;DHT22;33280;52.152;21.052;2023-05-10T08:48:24;20.30;50.40
47540;DHT22;33280;52.152;21.052;2023-05-10T08:50:53;20.10;50.90
47540;DHT22;33280;52.152;21.052;2023-05-10T08:53:24;20.20;50.30
47540;DHT22;33280;52.152;21.052;2023-05-10T08:55:52;20.20;49.90
47540;DHT22;33280;52.152;21.052;2023-05-10T08:58:19;20.30;49.60
47540;DHT22;33280;52.152;21.052;2023-05-10T09:00:49;20.10;49.80
47540;DHT22;33280;52.152;21.052;2023-05-10T09:03:19;20.50;48.90
47540;DHT22;33280;52.152;21.052;2023-05-10T09:05:47;20.80;49.90
47540;DHT22;33280;52.152;21.052;2023-05-10T09:08:15;21.10;49.60
47540;DHT22;33280;52.152;21.052;2023-05-10T09:10:45;21.30;49.80
47540;DHT22;33280;52.152;21.052;2023-05-10T09:13:15;21.30;48.30
47540;DHT22;33280;52.152;21.052;2023-05-10T09:15:44;21.30;48.40
47540;DHT22;33280;52.152;21.052;2023-05-10T09:18:12;21.10;48.90
47540;DHT22;33280;52.152;21.052;2023-05-10T09:20:39;21.00;49.00
47540;DHT22;33280;52.152;21.052;2023-05-10T09:23:07;20.90;48.80
47540;DHT22;33280;52.152;21.052;2023-05-10T09:25:34;20.90;49.70
47540;DHT22;33280;52.152;21.052;2023-05-10T09:28:02;20.70;49.30
47540;DHT22;33280;52.152;21.052;2023-05-10T09:30:30;20.70;49.60
47540;DHT22;33280;52.152;21.052;2023-05-10T09:32:59;20.80;50.10
47540;DHT22;33280;52.152;21.052;2023-05-10T09:35:29;21.00;49.70
47540;DHT22;33280;52.152;21.052;2023-05-10T09:38:00;21.40;49.00
47540;DHT22;33280;52.152;21.052;2023-05-10T09:40:28;21.40;48.50
47540;DHT22;33280;52.152;21.052;2023-05-10T09:42:57;21.50;48.40
47540;DHT22;33280;52.152;21.052;2023-05-10T09:45:26;21.50;48.00
47540;DHT22;33280;52.152;21.052;2023-05-10T09:47:54;21.50;48.40
47540;DHT22;33280;52.152;21.052;2023-05-10T09:50:22;21.50;48.10
47540;DHT22;33280;52.152;21.052;2023-05-10T09:52:53;21.70;48.60
47540;DHT22;33280;52.152;21.052;2023-05-10T09:55:24;22.10;49.20
47540;DHT22;33280;52.152;21.052;2023-05-10T09:58:00;22.10;47.10
47540;DHT22;33280;52.152;21.052;2023-05-10T10:00:28;21.90;47.00
47540;DHT22;33280;52.152;21.052;2023-05-10T10:02:57;21.90;47.60
47540;DHT22;33280;52.152;21.052;2023-05-10T10:05:31;22.40;47.00
47540;DHT22;33280;52.152;21.052;2023-05-10T10:07:59;22.50;46.40
47540;DHT22;33280;52.152;21.052;2023-05-10T10:10:26;22.20;46.00
47540;DHT22;33280;52.152;21.052;2023-05-10T10:12:54;22.70;46.20
47540;DHT22;33280;52.152;21.052;2023-05-10T10:15:22;22.90;46.00
47540;DHT22;33280;52.152;21.052;2023-05-10T10:17:50;22.90;44.70
47540;DHT22;33280;52.152;21.052;2023-05-10T10:20:19;23.10;46.40
47540;DHT22;33280;52.152;21.052;2023-05-10T10:22:47;23.30;45.20
47540;DHT22;33280;52.152;21.052;2023-05-10T10:25:16;23.20;44.80
47540;DHT22;33280;52.152;21.052;2023-05-10T10:35:58;23.70;44.50
47540;DHT22;33280;52.152;21.052;2023-05-10T10:38:56;23.60;44.40
47540;DHT22;33280;52.152;21.052;2023-05-10T10:41:35;23.70;44.60
47540;DHT22;33280;52.152;21.052;2023-05-10T10:57:19;24.60;43.60
47540;DHT22;33280;52.152;21.052;2023-05-10T10:59:50;24.90;41.20
47540;DHT22;33280;52.152;21.052;2023-05-10T11:02:43;24.80;42.30
47540;DHT22;33280;52.152;21.052;2023-05-10T11:08:11;24.70;41.50
47540;DHT22;33280;52.152;21.052;2023-05-10T11:10:49;24.80;41.90
47540;DHT22;33280;52.152;21.052;2023-05-10T11:18:40;24.70;41.10
47540;DHT22;33280;52.152;21.052;2023-05-10T11:21:09;24.30;41.70
47540;DHT22;33280;52.152;21.052;2023-05-10T11:23:47;24.30;42.50
47540;DHT22;33280;52.152;21.052;2023-05-10T11:26:15;24.10;42.50
47540;DHT22;33280;52.152;21.052;2023-05-10T11:28:46;24.60;42.20
47540;DHT22;33280;52.152;21.052;2023-05-10T11:31:18;25.00;42.00
47540;DHT22;33280;52.152;21.052;2023-05-10T11:33:54;25.00;41.80
47540;DHT22;33280;52.152;21.052;2023-05-10T11:36:23;25.00;41.60
47540;DHT22;33280;52.152;21.052;2023-05-10T11:38:50;24.60;41.80
47540;DHT22;33280;52.152;21.052;2023-05-10T11:41:18;24.30;42.40
47540;DHT22;33280;52.152;21.052;2023-05-10T11:43:52;24.40;43.60
47540;DHT22;33280;52.152;21.052;2023-05-10T11:46:23;24.90;42.50
47540;DHT22;33280;52.152;21.052;2023-05-10T11:49:01;24.60;41.30
47540;DHT22;33280;52.152;21.052;2023-05-10T11:51:34;24.20;41.90
47540;DHT22;33280;52.152;21.052;2023-05-10T11:54:06;24.20;43.10
47540;DHT22;33280;52.152;21.052;2023-05-10T11:56:39;24.30;42.50
47540;DHT22;33280;52.152;21.052;2023-05-10T11:59:06;25.00;42.10
47540;DHT22;33280;52.152;21.052;2023-05-10T12:01:35;25.30;42.20
47540;DHT22;33280;52.152;21.052;2023-05-10T12:04:03;25.40;41.60
47540;DHT22;33280;52.152;21.052;2023-05-10T12:06:37;25.10;40.70
47540;DHT22;33280;52.152;21.052;2023-05-10T12:09:07;25.10;41.40
47540;DHT22;33280;52.152;21.052;2023-05-10T12:11:38;25.60;41.40
47540;DHT22;33280;52.152;21.052;2023-05-10T12:14:10;25.80;41.10
47540;DHT22;33280;52.152;21.052;2023-05-10T12:16:37;25.20;40.50
47540;DHT22;33280;52.152;21.052;2023-05-10T12:19:04;25.30;41.00
47540;DHT22;33280;52.152;21.052;2023-05-10T12:21:32;25.20;41.60
47540;DHT22;33280;52.152;21.052;2023-05-10T12:24:02;25.10;41.60
47540;DHT22;33280;52.152;21.052;2023-05-10T12:26:29;25.20;40.80
47540;DHT22;33280;52.152;21.052;2023-05-10T12:29:16;25.40;41.20
47540;DHT22;33280;52.152;21.052;2023-05-10T12:31:55;25.30;40.90
47540;DHT22;33280;52.152;21.052;2023-05-10T12:34:29;25.40;40.70
47540;DHT22;33280;52.152;21.052;2023-05-10T12:36:58;25.60;40.70
47540;DHT22;33280;52.152;21.052;2023-05-10T12:39:25;26.00;41.00
47540;DHT22;33280;52.152;21.052;2023-05-10T12:41:52;26.00;40.60
47540;DHT22;33280;52.152;21.052;2023-05-10T12:44:19;25.20;40.50
47540;DHT22;33280;52.152;21.052;2023-05-10T12:46:46;25.50;41.20
47540;DHT22;33280;52.152;21.052;2023-05-10T12:49:13;26.00;41.20
47540;DHT22;33280;52.152;21.052;2023-05-10T12:51:40;26.00;40.20
47540;DHT22;33280;52.152;21.052;2023-05-10T12:54:07;25.70;39.10
47540;DHT22;33280;52.152;21.052;2023-05-10T12:56:34;25.50;40.60
47540;DHT22;33280;52.152;21.052;2023-05-10T12:59:01;25.80;41.30
47540;DHT22;33280;52.152;21.052;2023-05-10T13:01:28;25.20;40.30
47540;DHT22;33280;52.152;21.052;2023-05-10T13:03:55;25.30;40.50
47540;DHT22;33280;52.152;21.052;2023-05-10T13:06:22;24.60;40.10
47540;DHT22;33280;52.152;21.052;2023-05-10T13:08:49;24.70;41.60
47540;DHT22;33280;52.152;21.052;2023-05-10T13:11:17;24.90;40.60
47540;DHT22;33280;52.152;21.052;2023-05-10T13:13:44;25.20;41.50
47540;DHT22;33280;52.152;21.052;2023-05-10T13:16:11;25.60;40.70
47540;DHT22;33280;52.152;21.052;2023-05-10T13:18:38;25.80;40.50
47540;DHT22;33280;52.152;21.052;2023-05-10T13:21:05;25.90;40.70
47540;DHT22;33280;52.152;21.052;2023-05-10T13:23:32;25.30;39.80
47540;DHT22;33280;52.152;21.052;2023-05-10T13:25:59;25.00;40.00
47540;DHT22;33280;52.152;21.052;2023-05-10T13:28:26;25.20;40.40
47540;DHT22;33280;52.152;21.052;2023-05-10T13:30:53;25.40;39.90
47540;DHT22;33280;52.152;21.052;2023-05-10T13:33:20;25.40;39.90
47540;DHT22;33280;52.152;21.052;2023-05-10T13:35:47;25.70;40.30
47540;DHT22;33280;52.152;21.052;2023-05-10T13:38:14;25.80;40.00
47540;DHT22;33280;52.152;21.052;2023-05-10T13:40:41;26.20;40.10
47540;DHT22;33280;52.152;21.052;2023-05-10T13:43:08;26.10;39.00
47540;DHT22;33280;52.152;21.052;2023-05-10T13:45:35;26.00;39.70
47540;DHT22;33280;52.152;21.052;2023-05-10T13:48:02;25.80;39.70
47540;DHT22;33280;52.152;21.052;2023-05-10T13:50:29;25.60;40.20
47540;DHT22;33280;52.152;21.052;2023-05-10T13:52:56;25.60;40.20
47540;DHT22;33280;52.152;21.052;2023-05-10T13:58:47;26.30;39.90
47540;DHT22;33280;52.152;21.052;2023-05-10T14:01:14;26.00;39.30
47540;DHT22;33280;52.152;21.052;2023-05-10T14:03:42;25.70;39.40
47540;DHT22;33280;52.152;21.052;2023-05-10T14:06:09;25.60;39.90
47540;DHT22;33280;52.152;21.052;2023-05-10T14:08:37;25.60;39.80
47540;DHT22;33280;52.152;21.052;2023-05-10T14:11:04;25.60;39.20
47540;DHT22;33280;52.152;21.052;2023-05-10T14:13:31;25.90;40.10
47540;DHT22;33280;52.152;21.052;2023-05-10T14:15:58;25.50;39.80
47540;DHT22;33280;52.152;21.052;2023-05-10T14:18:27;25.80;40.10
47540;DHT22;33280;52.152;21.052;2023-05-10T14:20:54;26.00;40.10
47540;DHT22;33280;52.152;21.052;2023-05-10T14:23:22;26.20;39.30
47540;DHT22;33280;52.152;21.052;2023-05-10T14:25:53;26.20;38.70
47540;DHT22;33280;52.152;21.052;2023-05-10T14:28:20;25.60;39.50
47540;DHT22;33280;52.152;21.052;2023-05-10T14:30:47;25.40;40.20
47540;DHT22;33280;52.152;21.052;2023-05-10T14:33:14;25.20;40.00
47540;DHT22;33280;52.152;21.052;2023-05-10T14:35:41;25.00;40.10
47540;DHT22;33280;52.152;21.052;2023-05-10T14:38:08;24.40;40.60
47540;DHT22;33280;52.152;21.052;2023-05-10T14:40:35;24.30;42.00
47540;DHT22;33280;52.152;21.052;2023-05-10T14:43:02;24.30;41.50
47540;DHT22;33280;52.152;21.052;2023-05-10T14:45:29;24.60;40.70
47540;DHT22;33280;52.152;21.052;2023-05-10T14:47:57;24.90;40.50
47540;DHT22;33280;52.152;21.052;2023-05-10T14:50:24;25.00;40.10
47540;DHT22;33280;52.152;21.052;2023-05-10T14:56:26;25.60;39.80
47540;DHT22;33280;52.152;21.052;2023-05-10T14:58:54;25.90;39.40
47540;DHT22;33280;52.152;21.052;2023-05-10T15:01:22;26.20;39.20
47540;DHT22;33280;52.152;21.052;2023-05-10T15:03:49;25.70;39.40
47540;DHT22;33280;52.152;21.052;2023-05-10T15:06:23;25.60;40.20
47540;DHT22;33280;52.152;21.052;2023-05-10T15:08:51;26.30;39.80
47540;DHT22;33280;52.152;21.052;2023-05-10T15:11:18;26.80;39.20
47540;DHT22;33280;52.152;21.052;2023-05-10T15:13:45;27.00;38.70
47540;DHT22;33280;52.152;21.052;2023-05-10T15:16:12;27.00;38.70
47540;DHT22;33280;52.152;21.052;2023-05-10T15:18:39;26.90;39.00
47540;DHT22;33280;52.152;21.052;2023-05-10T15:21:06;26.70;39.10
47540;DHT22;33280;52.152;21.052;2023-05-10T15:23:33;27.00;39.20
47540;DHT22;33280;52.152;21.052;2023-05-10T15:26:00;26.80;38.50
47540;DHT22;33280;52.152;21.052;2023-05-10T15:28:27;26.10;38.60
47540;DHT22;33280;52.152;21.052;2023-05-10T15:30:55;26.30;39.20
47540;DHT22;33280;52.152;21.052;2023-05-10T15:33:22;26.40;38.90
47540;DHT22;33280;52.152;21.052;2023-05-10T15:35:50;25.90;40.70
47540;DHT22;33280;52.152;21.052;2023-05-10T15:38:16;25.50;41.50
47540;DHT22;33280;52.152;21.052;2023-05-10T15:40:48;25.00;44.60
47540;DHT22;33280;52.152;21.052;2023-05-10T15:54:07;23.30;43.90
47540;DHT22;33280;52.152;21.052;2023-05-10T16:07:16;22.10;45.00
47540;DHT22;33280;52.152;21.052;2023-05-10T16:09:43;22.60;44.80
47540;DHT22;33280;52.152;21.052;2023-05-10T16:12:15;22.60;44.80
47540;DHT22;33280;52.152;21.052;2023-05-10T16:14:42;22.30;44.80
47540;DHT22;33280;52.152;21.052;2023-05-10T16:17:09;21.80;45.70
47540;DHT22;33280;52.152;21.052;2023-05-10T16:19:36;21.90;46.10
47540;DHT22;33280;52.152;21.052;2023-05-10T16:22:04;21.90;45.60
47540;DHT22;33280;52.152;21.052;2023-05-10T16:24:31;21.60;46.40
47540;DHT22;33280;52.152;21.052;2023-05-10T16:26:58;21.70;46.80
47540;DHT22;33280;52.152;21.052;2023-05-10T16:29:24;21.40;45.20
47540;DHT22;33280;52.152;21.052;2023-05-10T16:31:51;21.20;45.40
47540;DHT22;33280;52.152;21.052;2023-05-10T16:34:18;20.60;46.10
47540;DHT22;33280;52.152;21.052;2023-05-10T16:36:50;20.30;46.90
47540;DHT22;33280;52.152;21.052;2023-05-10T16:39:17;19.60;46.90
47540;DHT22;33280;52.152;21.052;2023-05-10T16:41:44;19.10;48.50
47540;DHT22;33280;52.152;21.052;2023-05-10T16:44:18;18.90;49.40
47540;DHT22;33280;52.152;21.052;2023-05-10T16:46:47;18.40;49.20